首页
METAR-TAF:

METAR-TAF

机场 :

迪戈加西亚岛, 英屬印度洋領地

纬度: 07-18S, 经度: 072-24E, 海拔: 1米

当前天气观测

该预报发布于51分钟前的10:55 UTC
风速10节,风向
温度 29°C
湿度 89%
气压 1010 hPa
能见度10公里或以上
散云层高于1700英尺
散云层高于5000英尺
阴天层高于9000英尺

METAR: FJDG 191055Z 10010KT 9999 SCT017 SCT050 OVC090 29/27 A2983 RMK SLP098 T02910267

时间: 17:46 (11:46 UTC)

预报

该预报发布于2小时和46分钟前的09:00 UTC
预报有效从19日的 09点(UTC)到 20日的 15点(UTC)
风速9节,风向
能见度10公里或以上
少量云层高于2000英尺
散云层高于5000英尺
阴天层高于8000英尺
短暂存在
从 19日的 09点(UTC)到 19日的 15点(UTC)
能見度: 9000
多云层高于3000英尺
小阵雨

TAF: FJDG 190900Z 1909/2015 09009KT 9999 FEW020 SCT050 OVC080 QNH2979INS TEMPO 1909/1915 9000 -SHRA BKN030 TX31/1911Z TN25/1923Z

超过4000个机场的气象观测和天气预报(METAR&TAF报告)。

可查询的气象台以黄色和红色小点在地图上表示。

将鼠标移到小点上方,可查看气象台名称。

然后点击查看天气观测和预报。

如需切换地图:点击带黑十字的绿色按钮放大地图;点击带横线的绿色按钮缩小地图;或者点击绿色箭头查看邻近地区的地图。


METAR-TAF: